Time,TemperatureF,DewpointF,PressureIn,WindDirection,WindDirectionDegrees,WindSpeedMPH,WindSpeedGustMPH,Humidity,HourlyPrecipIn,Conditions,Clouds,dailyrainin,SoftwareType,DateUTC
2013-10-02 00:13:00,65.0,64.0,30.08,SSW,200,0.0,0.0,95,0.00,,,0.00,,2013-10-02 05:13:00,
2013-10-02 00:22:00,65.0,64.0,30.08,SSW,200,0.0,0.0,96,0.00,,,0.00,,2013-10-02 05:22:00,
2013-10-02 00:43:00,65.0,64.0,30.08,SE,132,0.0,0.0,96,0.00,,,0.00,,2013-10-02 05:43:00,
2013-10-02 00:53:00,65.0,64.0,30.08,SE,132,0.0,0.0,95,0.00,,,0.00,,2013-10-02 05:53:00,
2013-10-02 01:12:00,65.0,64.0,30.08,SE,132,0.0,0.0,96,0.00,,,0.00,,2013-10-02 06:12:00,
2013-10-02 01:22:00,65.0,64.0,30.08,SE,132,0.0,0.0,96,0.00,,,0.00,,2013-10-02 06:22:00,
2013-10-02 01:42:00,64.0,63.0,30.08,SE,132,0.0,0.0,96,0.00,,,0.00,,2013-10-02 06:42:00,
2013-10-02 01:52:00,64.0,63.0,30.08,SE,132,0.0,0.0,96,0.00,,,0.00,,2013-10-02 06:52:00,
2013-10-02 02:12:00,64.0,63.0,30.08,SE,132,0.0,0.0,96,0.00,,,0.00,,2013-10-02 07:12:00,
2013-10-02 02:22:00,64.0,63.0,30.08,SE,132,0.0,0.0,96,0.00,,,0.00,,2013-10-02 07:22:00,
2013-10-02 02:42:00,64.0,63.0,30.08,SE,132,0.0,0.0,96,0.00,,,0.00,,2013-10-02 07:42:00,
2013-10-02 02:52:00,64.0,63.0,30.08,SE,132,0.0,0.0,96,0.00,,,0.00,,2013-10-02 07:52:00,
2013-10-02 03:11:00,64.0,63.0,30.08,SE,132,0.0,0.0,96,0.00,,,0.00,,2013-10-02 08:11:00,
2013-10-02 03:22:00,64.0,63.0,30.07,SE,132,0.0,0.0,96,0.00,,,0.00,,2013-10-02 08:22:00,
2013-10-02 03:42:00,64.0,63.0,30.08,SE,132,0.0,0.0,96,0.00,,,0.00,,2013-10-02 08:42:00,
2013-10-02 03:52:00,64.0,63.0,30.08,SE,132,0.0,0.0,96,0.00,,,0.00,,2013-10-02 08:52:00,
2013-10-02 04:11:00,64.0,63.0,30.08,SE,132,0.0,0.0,96,0.00,,,0.00,,2013-10-02 09:11:00,
2013-10-02 04:21:00,64.0,63.0,30.08,SE,132,0.0,0.0,96,0.00,,,0.00,,2013-10-02 09:21:00,
2013-10-02 04:43:00,64.0,63.0,30.08,SE,132,0.0,0.0,97,0.00,,,0.00,,2013-10-02 09:43:00,
2013-10-02 04:54:00,64.0,63.0,30.08,SE,132,0.0,0.0,97,0.00,,,0.00,,2013-10-02 09:54:00,
2013-10-02 05:12:00,64.0,63.0,30.08,SE,132,0.0,0.0,97,0.00,,,0.00,,2013-10-02 10:12:00,
2013-10-02 05:23:00,64.0,63.0,30.09,SE,132,0.0,0.0,97,0.00,,,0.00,,2013-10-02 10:23:00,
2013-10-02 05:42:00,64.0,63.0,30.09,SE,132,0.0,0.0,97,0.00,,,0.00,,2013-10-02 10:42:00,
2013-10-02 05:53:00,64.0,63.0,30.09,SE,132,0.0,0.0,97,0.00,,,0.00,,2013-10-02 10:53:00,
2013-10-02 06:12:00,64.0,63.0,30.09,East,99,0.0,0.0,97,0.00,,,0.00,,2013-10-02 11:12:00,
2013-10-02 06:22:00,64.0,63.0,30.10,ESE,105,0.0,1.0,97,0.00,,,0.00,,2013-10-02 11:22:00,
2013-10-02 06:52:00,64.0,63.0,30.11,ENE,65,0.0,1.0,97,0.00,,,0.00,,2013-10-02 11:52:00,
2013-10-02 07:12:00,65.0,64.0,30.11,ENE,65,0.0,0.0,97,0.00,,,0.00,,2013-10-02 12:12:00,
2013-10-02 07:22:00,65.0,64.0,30.11,NE,38,0.0,3.0,97,0.00,,,0.00,,2013-10-02 12:22:00,
2013-10-02 07:42:00,65.0,64.0,30.11,NE,55,0.0,0.0,97,0.00,,,0.00,,2013-10-02 12:42:00,
2013-10-02 07:52:00,66.0,65.0,30.12,NE,55,0.0,0.0,97,0.01,,,0.01,,2013-10-02 12:52:00,
2013-10-02 08:11:00,67.0,66.0,30.12,East,83,0.0,2.0,97,0.01,,,0.01,,2013-10-02 13:11:00,
2013-10-02 08:22:00,67.0,66.0,30.12,East,83,0.0,1.0,97,0.02,,,0.02,,2013-10-02 13:22:00,
2013-10-02 08:52:00,69.0,68.0,30.13,SSW,195,0.0,2.0,97,0.04,,,0.05,,2013-10-02 13:52:00,
2013-10-02 09:11:00,69.0,68.0,30.13,NW,304,0.0,1.0,97,0.09,,,0.10,,2013-10-02 14:11:00,
2013-10-02 09:21:00,70.0,69.0,30.13,WNW,301,0.0,2.0,97,0.12,,,0.14,,2013-10-02 14:21:00,
2013-10-02 09:42:00,70.0,69.0,30.13,WNW,302,1.0,4.0,97,0.15,,,0.17,,2013-10-02 14:42:00,
2013-10-02 09:52:00,71.0,70.0,30.12,NW,319,0.0,0.0,97,0.12,,,0.17,,2013-10-02 14:52:00,
2013-10-02 10:11:00,72.0,71.0,30.12,SSW,197,0.0,2.0,97,0.07,,,0.17,,2013-10-02 15:11:00,
2013-10-02 10:22:00,72.0,71.0,30.12,SE,144,0.0,2.0,96,0.02,,,0.17,,2013-10-02 15:22:00,
2013-10-02 10:43:00,73.0,71.0,30.12,SW,223,0.0,2.0,95,0.00,,,0.17,,2013-10-02 15:43:00,
2013-10-02 10:54:00,73.0,71.0,30.12,SSW,213,1.0,4.0,93,0.00,,,0.17,,2013-10-02 15:54:00,
2013-10-02 11:12:00,74.0,71.0,30.12,SSE,154,0.0,5.0,91,0.00,,,0.17,,2013-10-02 16:12:00,
2013-10-02 11:23:00,74.0,71.0,30.12,ESE,109,0.0,5.0,90,0.00,,,0.17,,2013-10-02 16:23:00,
2013-10-02 11:52:00,76.0,72.0,30.11,South,178,3.0,6.0,86,0.00,,,0.17,,2013-10-02 16:52:00,
2013-10-02 12:12:00,77.0,72.0,30.11,SSW,207,1.0,7.0,85,0.00,,,0.17,,2013-10-02 17:12:00,
2013-10-02 12:23:00,77.0,71.0,30.11,South,179,0.0,4.0,83,0.00,,,0.17,,2013-10-02 17:23:00,
2013-10-02 12:42:00,78.0,72.0,30.10,NNW,338,0.0,5.0,83,0.00,,,0.17,,2013-10-02 17:42:00,
2013-10-02 12:52:00,78.0,72.0,30.10,SSW,200,0.0,4.0,81,0.00,,,0.17,,2013-10-02 17:52:00,
2013-10-02 13:12:00,79.0,72.0,30.10,SSW,213,1.0,4.0,80,0.00,,,0.17,,2013-10-02 18:12:00,
2013-10-02 13:21:00,79.0,72.0,30.09,SSW,204,2.0,7.0,78,0.00,,,0.17,,2013-10-02 18:21:00,
2013-10-02 13:42:00,79.0,72.0,30.09,South,174,0.0,6.0,80,0.00,,,0.17,,2013-10-02 18:42:00,
2013-10-02 13:52:00,80.0,72.0,30.08,SSW,211,1.0,4.0,78,0.00,,,0.17,,2013-10-02 18:52:00,
2013-10-02 14:11:00,80.0,72.0,30.07,SSW,209,1.0,4.0,77,0.00,,,0.17,,2013-10-02 19:11:00,
2013-10-02 14:21:00,81.0,73.0,30.07,North,360,0.0,5.0,77,0.00,,,0.17,,2013-10-02 19:21:00,
2013-10-02 14:42:00,81.0,72.0,30.06,WNW,297,1.0,5.0,75,0.00,,,0.17,,2013-10-02 19:42:00,
2013-10-02 14:52:00,81.0,72.0,30.06,WNW,297,1.0,5.0,75,0.00,,,0.17,,2013-10-02 19:52:00,
2013-10-02 15:11:00,82.0,73.0,30.06,South,171,1.0,5.0,75,0.00,,,0.17,,2013-10-02 20:11:00,
2013-10-02 15:22:00,81.0,72.0,30.06,South,171,0.0,2.0,75,0.00,,,0.17,,2013-10-02 20:22:00,
2013-10-02 15:42:00,81.0,72.0,30.05,SSE,159,1.0,6.0,74,0.00,,,0.17,,2013-10-02 20:42:00,
2013-10-02 15:52:00,81.0,72.0,30.05,SW,222,0.0,6.0,75,0.00,,,0.17,,2013-10-02 20:52:00,
2013-10-02 16:11:00,80.0,72.0,30.04,SW,215,1.0,4.0,76,0.00,,,0.17,,2013-10-02 21:11:00,
2013-10-02 16:22:00,79.0,72.0,30.05,South,185,2.0,7.0,78,0.00,,,0.17,,2013-10-02 21:22:00,
2013-10-02 16:44:00,78.0,72.0,30.04,SSW,199,2.0,5.0,81,0.00,,,0.17,,2013-10-02 21:44:00,
2013-10-02 16:54:00,75.0,71.0,30.06,West,265,3.0,9.0,86,0.08,,,0.25,,2013-10-02 21:54:00,
2013-10-02 17:13:00,73.0,70.0,30.05,SE,143,0.0,2.0,91,0.17,,,0.34,,2013-10-02 22:13:00,
2013-10-02 17:24:00,73.0,71.0,30.06,ENE,74,0.0,2.0,93,0.17,,,0.34,,2013-10-02 22:24:00,
2013-10-02 17:44:00,74.0,72.0,30.06,South,188,0.0,1.0,93,0.17,,,0.34,,2013-10-02 22:44:00,
2013-10-02 17:53:00,73.0,71.0,30.06,South,188,0.0,1.0,93,0.09,,,0.34,,2013-10-02 22:53:00,
2013-10-02 18:12:00,73.0,71.0,30.06,South,188,0.0,1.0,93,0.00,,,0.34,,2013-10-02 23:12:00,
2013-10-02 18:22:00,72.0,70.0,30.06,South,188,0.0,0.0,93,0.00,,,0.34,,2013-10-02 23:22:00,
2013-10-02 18:52:00,72.0,70.0,30.06,South,188,0.0,0.0,94,0.00,,,0.34,,2013-10-02 23:52:00,
2013-10-02 19:12:00,72.0,70.0,30.07,East,80,0.0,1.0,94,0.00,,,0.34,,2013-10-03 00:12:00,
2013-10-02 19:22:00,71.0,69.0,30.07,East,80,0.0,0.0,94,0.00,,,0.34,,2013-10-03 00:22:00,
2013-10-02 19:42:00,71.0,69.0,30.07,East,80,0.0,0.0,95,0.00,,,0.34,,2013-10-03 00:42:00,
2013-10-02 19:52:00,71.0,69.0,30.08,WNW,283,1.0,4.0,94,0.00,,,0.34,,2013-10-03 00:52:00,
2013-10-02 20:11:00,72.0,70.0,30.08,WNW,303,0.0,1.0,93,0.01,,,0.35,,2013-10-03 01:11:00,
2013-10-02 20:22:00,71.0,68.0,30.07,WNW,303,0.0,0.0,91,0.01,,,0.35,,2013-10-03 01:22:00,
2013-10-02 20:42:00,70.0,68.0,30.07,WNW,303,0.0,2.0,93,0.01,,,0.35,,2013-10-03 01:42:00,
2013-10-02 20:52:00,70.0,68.0,30.08,WNW,303,0.0,0.0,94,0.01,,,0.35,,2013-10-03 01:52:00,
2013-10-02 21:11:00,70.0,68.0,30.08,WNW,303,0.0,0.0,94,0.00,,,0.35,,2013-10-03 02:11:00,
2013-10-02 21:22:00,70.0,68.0,30.08,WNW,303,0.0,0.0,95,0.00,,,0.35,,2013-10-03 02:22:00,
2013-10-02 22:11:00,69.0,68.0,30.08,ENE,63,0.0,0.0,95,0.00,,,0.35,,2013-10-03 03:11:00,
2013-10-02 22:22:00,69.0,68.0,30.08,ENE,63,0.0,0.0,95,0.00,,,0.35,,2013-10-03 03:22:00,
2013-10-02 22:44:00,69.0,68.0,30.08,ENE,63,0.0,0.0,95,0.00,,,0.35,,2013-10-03 03:44:00,
2013-10-02 22:54:00,69.0,68.0,30.08,ENE,63,0.0,0.0,95,0.00,,,0.35,,2013-10-03 03:54:00,
2013-10-02 23:13:00,70.0,69.0,30.08,East,90,0.0,2.0,96,0.00,,,0.35,,2013-10-03 04:13:00,
2013-10-02 23:24:00,69.0,68.0,30.08,East,90,0.0,1.0,95,0.00,,,0.35,,2013-10-03 04:24:00,
2013-10-02 23:44:00,69.0,68.0,30.08,East,90,0.0,0.0,96,0.00,,,0.35,,2013-10-03 04:44:00,
2013-10-02 23:53:00,69.0,68.0,30.08,East,90,0.0,0.0,96,0.00,,,0.35,,2013-10-03 04:53:00,